map of AJY home
AJY - Airport
Location
City:  Agades, Niger
Name:Manu Dayak International Airport
ICAO:DRZA
IATA:AJY

Details
Type:Airport (Aerodrome, Airfield)
Use:International (customs port of entry)
Latitude:1657'58"N (16.965997)
Longitude:800'00"E (8.000114)
Datum:WGS 1984
Elevation:1657 ft (505 m)
Variation:0.52E (WMM2015 magnetic declination)
0.09 annual change
Runways:1
Longest:9843 × 98 ft (3000 × 30 m), paved

Time
Time Zone:UTC+1
Local Time:

Weather
METAR:DRZA 210900Z 00000KT 6000 NSC 21/01 Q1018
TAF:DRZA 210500Z 2106/2206 08012KT 8000 NSC
TEMPO 2106/2110 06022KT 4000 BLDU

Related Locations
Nearby:
Farthest:NTT: 12308 mi / 19808 km
Niuatoputapu [Kuini Lavenia (Queen Lavinia)], Niuafo'ou Island, TO

Find:

   beyond  
but within

Other Information
Maps:
NOTAMs:
Links:
Sources:

  
  • flag of Niger
  

Sectional Chart

Flight Planning
at skyvector.com

Satellite Image

Google Maps Satellite view

 

Copyright © 2004-2019 Karl L. Swartz. All rights reserved.
The Great Circle Mapper name and logo are trademarks of the Great Circle Mapper.
All other trademarks mentioned herein belong to their respective owners.
Please see credits for attibutions and further copyright information.

  Follow gcmap on Facebook Follow gcmap on Twitter Follow gcmap on Google+ GCmap on LinkedIn

hCard Microformat

Geo Microformat